sensor_id;sensor_type;location;lat;lon;timestamp;temperature;humidity
770;DHT22;368;48.698;9.116;2023-07-28T00:00:45;15.30;99.90
770;DHT22;368;48.698;9.116;2023-07-28T00:03:13;15.10;99.90
770;DHT22;368;48.698;9.116;2023-07-28T00:05:40;14.80;99.90
770;DHT22;368;48.698;9.116;2023-07-28T00:08:06;15.10;99.90
770;DHT22;368;48.698;9.116;2023-07-28T00:10:33;15.00;99.90
770;DHT22;368;48.698;9.116;2023-07-28T00:13:00;15.00;99.90
770;DHT22;368;48.698;9.116;2023-07-28T00:15:28;15.00;99.90
770;DHT22;368;48.698;9.116;2023-07-28T00:17:55;14.80;99.90
770;DHT22;368;48.698;9.116;2023-07-28T00:20:23;14.90;99.90
770;DHT22;368;48.698;9.116;2023-07-28T00:22:50;14.80;99.90
770;DHT22;368;48.698;9.116;2023-07-28T00:25:16;14.80;99.90
770;DHT22;368;48.698;9.116;2023-07-28T00:27:43;14.80;99.90
770;DHT22;368;48.698;9.116;2023-07-28T00:30:11;14.80;99.90
770;DHT22;368;48.698;9.116;2023-07-28T00:32:38;14.40;99.90
770;DHT22;368;48.698;9.116;2023-07-28T00:35:06;14.80;99.90
770;DHT22;368;48.698;9.116;2023-07-28T00:37:34;14.80;99.90
770;DHT22;368;48.698;9.116;2023-07-28T00:40:01;14.50;99.90
770;DHT22;368;48.698;9.116;2023-07-28T00:42:28;14.60;99.90
770;DHT22;368;48.698;9.116;2023-07-28T00:44:55;14.60;99.90
770;DHT22;368;48.698;9.116;2023-07-28T00:47:22;14.80;99.90
770;DHT22;368;48.698;9.116;2023-07-28T00:49:48;14.40;99.90
770;DHT22;368;48.698;9.116;2023-07-28T00:52:15;14.50;99.90
770;DHT22;368;48.698;9.116;2023-07-28T00:54:43;14.60;99.90
770;DHT22;368;48.698;9.116;2023-07-28T00:57:10;14.60;99.90
770;DHT22;368;48.698;9.116;2023-07-28T00:59:37;14.40;99.90
770;DHT22;368;48.698;9.116;2023-07-28T01:02:04;14.50;99.90
770;DHT22;368;48.698;9.116;2023-07-28T01:04:31;14.40;99.90
770;DHT22;368;48.698;9.116;2023-07-28T01:07:06;14.40;99.90
770;DHT22;368;48.698;9.116;2023-07-28T01:09:43;14.50;99.90
770;DHT22;368;48.698;9.116;2023-07-28T01:12:14;14.30;99.90
770;DHT22;368;48.698;9.116;2023-07-28T01:14:43;14.60;99.90
770;DHT22;368;48.698;9.116;2023-07-28T01:17:09;14.50;99.90
770;DHT22;368;48.698;9.116;2023-07-28T01:19:36;14.70;99.90
770;DHT22;368;48.698;9.116;2023-07-28T01:22:16;14.40;99.90
770;DHT22;368;48.698;9.116;2023-07-28T01:24:51;14.40;99.90
770;DHT22;368;48.698;9.116;2023-07-28T01:27:23;14.20;99.90
770;DHT22;368;48.698;9.116;2023-07-28T01:29:50;14.30;99.90
770;DHT22;368;48.698;9.116;2023-07-28T01:32:17;14.10;99.90
770;DHT22;368;48.698;9.116;2023-07-28T01:34:44;14.30;99.90
770;DHT22;368;48.698;9.116;2023-07-28T01:37:11;14.40;99.90
770;DHT22;368;48.698;9.116;2023-07-28T01:39:38;14.20;99.90
770;DHT22;368;48.698;9.116;2023-07-28T01:42:05;14.30;99.90
770;DHT22;368;48.698;9.116;2023-07-28T01:44:34;14.30;99.90
770;DHT22;368;48.698;9.116;2023-07-28T01:47:00;14.00;99.90
770;DHT22;368;48.698;9.116;2023-07-28T01:49:27;14.20;99.90
770;DHT22;368;48.698;9.116;2023-07-28T01:51:54;14.00;99.90
770;DHT22;368;48.698;9.116;2023-07-28T01:54:21;13.80;99.90
770;DHT22;368;48.698;9.116;2023-07-28T01:56:48;14.30;99.90
770;DHT22;368;48.698;9.116;2023-07-28T01:59:14;14.30;99.90
770;DHT22;368;48.698;9.116;2023-07-28T02:01:42;14.40;99.90
770;DHT22;368;48.698;9.116;2023-07-28T02:04:09;14.20;99.90
770;DHT22;368;48.698;9.116;2023-07-28T02:06:36;14.30;99.90
770;DHT22;368;48.698;9.116;2023-07-28T02:09:03;14.10;99.90
770;DHT22;368;48.698;9.116;2023-07-28T02:11:30;14.30;99.90
770;DHT22;368;48.698;9.116;2023-07-28T02:13:57;14.00;99.90
770;DHT22;368;48.698;9.116;2023-07-28T02:16:24;14.40;99.90
770;DHT22;368;48.698;9.116;2023-07-28T02:18:54;14.30;99.90
770;DHT22;368;48.698;9.116;2023-07-28T02:21:21;14.20;99.90
770;DHT22;368;48.698;9.116;2023-07-28T02:23:48;14.20;99.90
770;DHT22;368;48.698;9.116;2023-07-28T02:26:15;14.40;99.90
770;DHT22;368;48.698;9.116;2023-07-28T02:28:41;14.50;99.90
770;DHT22;368;48.698;9.116;2023-07-28T02:31:08;14.20;99.90
770;DHT22;368;48.698;9.116;2023-07-28T02:33:35;14.50;99.90
770;DHT22;368;48.698;9.116;2023-07-28T02:36:03;14.30;99.90
770;DHT22;368;48.698;9.116;2023-07-28T02:38:30;14.30;99.90
770;DHT22;368;48.698;9.116;2023-07-28T02:40:57;14.60;99.90
770;DHT22;368;48.698;9.116;2023-07-28T02:43:24;14.50;99.90
770;DHT22;368;48.698;9.116;2023-07-28T02:45:54;14.60;99.90
770;DHT22;368;48.698;9.116;2023-07-28T02:48:21;14.60;99.90
770;DHT22;368;48.698;9.116;2023-07-28T02:50:50;14.70;99.90
770;DHT22;368;48.698;9.116;2023-07-28T02:53:19;14.50;99.90
770;DHT22;368;48.698;9.116;2023-07-28T02:55:47;14.60;99.90
770;DHT22;368;48.698;9.116;2023-07-28T02:58:14;14.70;99.90
770;DHT22;368;48.698;9.116;2023-07-28T03:00:42;14.90;99.90
770;DHT22;368;48.698;9.116;2023-07-28T03:03:10;14.80;99.90
770;DHT22;368;48.698;9.116;2023-07-28T03:05:38;14.40;99.90
770;DHT22;368;48.698;9.116;2023-07-28T03:08:05;14.60;99.90
770;DHT22;368;48.698;9.116;2023-07-28T03:10:33;14.90;99.90
770;DHT22;368;48.698;9.116;2023-07-28T03:13:00;14.70;99.90
770;DHT22;368;48.698;9.116;2023-07-28T03:15:27;15.20;99.90
770;DHT22;368;48.698;9.116;2023-07-28T03:17:54;15.20;99.90
770;DHT22;368;48.698;9.116;2023-07-28T03:20:21;15.10;99.90
770;DHT22;368;48.698;9.116;2023-07-28T03:22:47;15.50;99.90
770;DHT22;368;48.698;9.116;2023-07-28T03:25:14;15.60;99.90
770;DHT22;368;48.698;9.116;2023-07-28T03:27:42;15.60;99.90
770;DHT22;368;48.698;9.116;2023-07-28T03:30:10;15.70;99.90
770;DHT22;368;48.698;9.116;2023-07-28T03:32:37;15.90;99.90
770;DHT22;368;48.698;9.116;2023-07-28T03:35:04;16.00;99.90
770;DHT22;368;48.698;9.116;2023-07-28T03:37:31;16.20;99.90
770;DHT22;368;48.698;9.116;2023-07-28T03:39:58;16.20;99.90
770;DHT22;368;48.698;9.116;2023-07-28T03:42:25;16.30;99.90
770;DHT22;368;48.698;9.116;2023-07-28T03:44:54;16.30;99.90
770;DHT22;368;48.698;9.116;2023-07-28T03:47:21;16.30;99.90
770;DHT22;368;48.698;9.116;2023-07-28T03:49:47;16.20;99.90
770;DHT22;368;48.698;9.116;2023-07-28T03:52:14;16.10;99.90
770;DHT22;368;48.698;9.116;2023-07-28T03:54:41;16.10;99.90
770;DHT22;368;48.698;9.116;2023-07-28T03:57:09;16.10;99.90
770;DHT22;368;48.698;9.116;2023-07-28T03:59:36;16.00;99.90
770;DHT22;368;48.698;9.116;2023-07-28T04:02:04;16.00;99.90
770;DHT22;368;48.698;9.116;2023-07-28T04:04:31;16.00;99.90
770;DHT22;368;48.698;9.116;2023-07-28T04:06:58;16.00;99.90
770;DHT22;368;48.698;9.116;2023-07-28T04:09:25;15.80;99.90
770;DHT22;368;48.698;9.116;2023-07-28T04:11:51;15.90;99.90
770;DHT22;368;48.698;9.116;2023-07-28T04:14:18;15.90;99.90
770;DHT22;368;48.698;9.116;2023-07-28T04:16:45;15.80;99.90
770;DHT22;368;48.698;9.116;2023-07-28T04:19:13;16.00;99.90
770;DHT22;368;48.698;9.116;2023-07-28T04:21:40;16.10;99.90
770;DHT22;368;48.698;9.116;2023-07-28T04:24:07;16.30;99.90
770;DHT22;368;48.698;9.116;2023-07-28T04:26:34;16.60;99.90
770;DHT22;368;48.698;9.116;2023-07-28T04:29:01;16.10;99.90
770;DHT22;368;48.698;9.116;2023-07-28T04:31:28;16.60;99.90
770;DHT22;368;48.698;9.116;2023-07-28T04:33:55;16.30;99.90
770;DHT22;368;48.698;9.116;2023-07-28T04:36:23;16.30;99.90
770;DHT22;368;48.698;9.116;2023-07-28T04:38:50;16.50;99.90
770;DHT22;368;48.698;9.116;2023-07-28T04:41:16;16.40;99.90
770;DHT22;368;48.698;9.116;2023-07-28T04:43:43;16.40;99.90
770;DHT22;368;48.698;9.116;2023-07-28T04:46:10;16.30;99.90
770;DHT22;368;48.698;9.116;2023-07-28T04:48:37;16.30;99.90
770;DHT22;368;48.698;9.116;2023-07-28T04:51:03;16.30;99.90
770;DHT22;368;48.698;9.116;2023-07-28T04:53:32;16.20;99.90
770;DHT22;368;48.698;9.116;2023-07-28T04:55:58;16.20;99.90
770;DHT22;368;48.698;9.116;2023-07-28T04:58:26;16.20;99.90
770;DHT22;368;48.698;9.116;2023-07-28T05:00:53;16.30;99.90
770;DHT22;368;48.698;9.116;2023-07-28T05:03:20;16.30;99.90
770;DHT22;368;48.698;9.116;2023-07-28T05:05:47;16.20;99.90
770;DHT22;368;48.698;9.116;2023-07-28T05:08:14;16.30;99.90
770;DHT22;368;48.698;9.116;2023-07-28T05:10:42;16.30;99.90
770;DHT22;368;48.698;9.116;2023-07-28T05:13:09;16.30;99.90
770;DHT22;368;48.698;9.116;2023-07-28T05:15:36;16.30;99.90
770;DHT22;368;48.698;9.116;2023-07-28T05:18:03;16.30;99.90
770;DHT22;368;48.698;9.116;2023-07-28T05:20:29;16.00;99.90
770;DHT22;368;48.698;9.116;2023-07-28T05:22:56;16.00;99.90
770;DHT22;368;48.698;9.116;2023-07-28T05:25:23;15.90;99.90
770;DHT22;368;48.698;9.116;2023-07-28T05:27:51;16.00;99.90
770;DHT22;368;48.698;9.116;2023-07-28T05:30:18;15.70;99.90
770;DHT22;368;48.698;9.116;2023-07-28T05:32:46;15.90;99.90
770;DHT22;368;48.698;9.116;2023-07-28T05:35:14;16.10;99.90
770;DHT22;368;48.698;9.116;2023-07-28T05:37:41;16.10;99.90
770;DHT22;368;48.698;9.116;2023-07-28T05:40:09;16.30;99.90
770;DHT22;368;48.698;9.116;2023-07-28T05:42:36;16.30;99.90
770;DHT22;368;48.698;9.116;2023-07-28T05:45:05;16.30;99.90
770;DHT22;368;48.698;9.116;2023-07-28T05:47:32;16.30;99.90
770;DHT22;368;48.698;9.116;2023-07-28T05:49:59;16.10;99.90
770;DHT22;368;48.698;9.116;2023-07-28T05:52:26;16.30;99.90
770;DHT22;368;48.698;9.116;2023-07-28T05:54:53;16.50;99.90
770;DHT22;368;48.698;9.116;2023-07-28T05:57:20;16.60;99.90
770;DHT22;368;48.698;9.116;2023-07-28T05:59:46;16.40;99.90
770;DHT22;368;48.698;9.116;2023-07-28T06:02:14;16.70;99.90
770;DHT22;368;48.698;9.116;2023-07-28T06:04:41;16.70;99.90
770;DHT22;368;48.698;9.116;2023-07-28T06:07:09;16.80;99.90
770;DHT22;368;48.698;9.116;2023-07-28T06:09:36;16.80;99.90
770;DHT22;368;48.698;9.116;2023-07-28T06:12:03;16.80;99.90
770;DHT22;368;48.698;9.116;2023-07-28T06:14:30;16.90;99.90
770;DHT22;368;48.698;9.116;2023-07-28T06:16:57;16.80;99.90
770;DHT22;368;48.698;9.116;2023-07-28T06:19:25;16.70;99.90
770;DHT22;368;48.698;9.116;2023-07-28T06:21:52;16.90;99.90
770;DHT22;368;48.698;9.116;2023-07-28T06:24:20;17.10;99.90
770;DHT22;368;48.698;9.116;2023-07-28T06:26:47;17.10;99.90
770;DHT22;368;48.698;9.116;2023-07-28T06:29:13;17.30;99.90
770;DHT22;368;48.698;9.116;2023-07-28T06:31:41;17.20;99.90
770;DHT22;368;48.698;9.116;2023-07-28T06:34:07;17.20;99.90
770;DHT22;368;48.698;9.116;2023-07-28T06:36:36;17.10;99.90
770;DHT22;368;48.698;9.116;2023-07-28T06:39:02;17.10;99.90
770;DHT22;368;48.698;9.116;2023-07-28T06:41:30;17.10;99.90
770;DHT22;368;48.698;9.116;2023-07-28T06:43:56;17.00;99.90
770;DHT22;368;48.698;9.116;2023-07-28T06:46:23;17.00;99.90
770;DHT22;368;48.698;9.116;2023-07-28T06:48:50;17.00;99.90
770;DHT22;368;48.698;9.116;2023-07-28T06:51:17;17.00;99.90
770;DHT22;368;48.698;9.116;2023-07-28T06:53:46;17.00;99.90
770;DHT22;368;48.698;9.116;2023-07-28T06:56:13;17.10;99.90
770;DHT22;368;48.698;9.116;2023-07-28T06:58:39;17.20;99.90
770;DHT22;368;48.698;9.116;2023-07-28T07:01:06;17.50;99.90
770;DHT22;368;48.698;9.116;2023-07-28T07:03:36;17.60;99.90
770;DHT22;368;48.698;9.116;2023-07-28T07:06:03;17.70;99.90
770;DHT22;368;48.698;9.116;2023-07-28T07:08:29;18.00;99.90
770;DHT22;368;48.698;9.116;2023-07-28T07:10:58;18.20;99.90
770;DHT22;368;48.698;9.116;2023-07-28T07:13:25;18.30;99.90
770;DHT22;368;48.698;9.116;2023-07-28T07:15:51;18.40;99.90
770;DHT22;368;48.698;9.116;2023-07-28T07:18:18;18.30;99.90
770;DHT22;368;48.698;9.116;2023-07-28T07:20:45;18.20;99.90
770;DHT22;368;48.698;9.116;2023-07-28T07:23:12;18.50;99.90
770;DHT22;368;48.698;9.116;2023-07-28T07:25:39;18.60;99.90
770;DHT22;368;48.698;9.116;2023-07-28T07:28:07;18.50;99.90
770;DHT22;368;48.698;9.116;2023-07-28T07:30:34;18.70;99.90
770;DHT22;368;48.698;9.116;2023-07-28T07:33:01;19.00;99.90
770;DHT22;368;48.698;9.116;2023-07-28T07:35:27;19.10;99.90
770;DHT22;368;48.698;9.116;2023-07-28T07:37:54;19.20;99.90
770;DHT22;368;48.698;9.116;2023-07-28T07:40:21;19.20;99.90
770;DHT22;368;48.698;9.116;2023-07-28T07:42:49;19.70;99.90
770;DHT22;368;48.698;9.116;2023-07-28T07:45:18;19.90;99.90
770;DHT22;368;48.698;9.116;2023-07-28T07:47:45;19.80;99.90
770;DHT22;368;48.698;9.116;2023-07-28T07:50:11;19.60;99.90
770;DHT22;368;48.698;9.116;2023-07-28T07:52:39;19.40;99.90
770;DHT22;368;48.698;9.116;2023-07-28T07:55:06;19.40;99.90
770;DHT22;368;48.698;9.116;2023-07-28T07:57:33;19.50;99.90
770;DHT22;368;48.698;9.116;2023-07-28T08:00:00;19.50;99.90
770;DHT22;368;48.698;9.116;2023-07-28T08:02:28;19.20;99.90
770;DHT22;368;48.698;9.116;2023-07-28T08:04:55;19.30;99.90
770;DHT22;368;48.698;9.116;2023-07-28T08:07:22;19.20;99.90
770;DHT22;368;48.698;9.116;2023-07-28T08:09:50;19.40;99.90
770;DHT22;368;48.698;9.116;2023-07-28T08:12:17;19.60;99.90
770;DHT22;368;48.698;9.116;2023-07-28T08:14:44;19.70;99.90
770;DHT22;368;48.698;9.116;2023-07-28T08:17:11;20.10;99.90
770;DHT22;368;48.698;9.116;2023-07-28T08:19:40;20.50;99.90
770;DHT22;368;48.698;9.116;2023-07-28T08:22:07;20.60;99.90
770;DHT22;368;48.698;9.116;2023-07-28T08:24:34;20.90;99.90
770;DHT22;368;48.698;9.116;2023-07-28T08:27:01;20.90;99.90
770;DHT22;368;48.698;9.116;2023-07-28T08:29:28;21.10;99.90
770;DHT22;368;48.698;9.116;2023-07-28T08:31:55;21.40;99.90
770;DHT22;368;48.698;9.116;2023-07-28T08:34:22;21.30;99.90
770;DHT22;368;48.698;9.116;2023-07-28T08:36:50;21.80;99.90
770;DHT22;368;48.698;9.116;2023-07-28T08:39:17;22.30;99.90
770;DHT22;368;48.698;9.116;2023-07-28T08:41:45;22.20;99.90
770;DHT22;368;48.698;9.116;2023-07-28T08:44:12;22.40;99.90
770;DHT22;368;48.698;9.116;2023-07-28T08:46:39;22.80;99.90
770;DHT22;368;48.698;9.116;2023-07-28T08:49:06;22.80;99.90
770;DHT22;368;48.698;9.116;2023-07-28T08:51:32;23.00;99.90
770;DHT22;368;48.698;9.116;2023-07-28T08:54:01;22.80;99.90
770;DHT22;368;48.698;9.116;2023-07-28T08:56:27;22.90;99.90
770;DHT22;368;48.698;9.116;2023-07-28T08:58:59;22.80;99.90
770;DHT22;368;48.698;9.116;2023-07-28T09:01:26;23.40;99.90
770;DHT22;368;48.698;9.116;2023-07-28T09:03:53;23.60;99.90
770;DHT22;368;48.698;9.116;2023-07-28T09:06:28;23.50;99.90
770;DHT22;368;48.698;9.116;2023-07-28T09:08:56;23.30;99.90
770;DHT22;368;48.698;9.116;2023-07-28T09:11:25;22.50;99.90
770;DHT22;368;48.698;9.116;2023-07-28T09:13:54;22.60;99.90
770;DHT22;368;48.698;9.116;2023-07-28T09:16:21;23.60;99.90
770;DHT22;368;48.698;9.116;2023-07-28T09:18:50;24.90;99.90
770;DHT22;368;48.698;9.116;2023-07-28T09:21:17;25.90;99.70
770;DHT22;368;48.698;9.116;2023-07-28T09:23:46;25.30;98.50
770;DHT22;368;48.698;9.116;2023-07-28T09:26:13;24.40;99.50
770;DHT22;368;48.698;9.116;2023-07-28T09:28:42;23.70;99.90
770;DHT22;368;48.698;9.116;2023-07-28T09:31:09;23.60;99.90
770;DHT22;368;48.698;9.116;2023-07-28T09:33:36;24.00;99.90
770;DHT22;368;48.698;9.116;2023-07-28T09:36:08;25.00;99.80
770;DHT22;368;48.698;9.116;2023-07-28T09:38:36;25.90;98.60
770;DHT22;368;48.698;9.116;2023-07-28T09:41:04;25.80;96.90
770;DHT22;368;48.698;9.116;2023-07-28T09:43:33;25.00;97.60
770;DHT22;368;48.698;9.116;2023-07-28T09:46:03;24.00;98.60
770;DHT22;368;48.698;9.116;2023-07-28T09:48:32;23.70;99.90
770;DHT22;368;48.698;9.116;2023-07-28T09:51:04;24.40;98.90
770;DHT22;368;48.698;9.116;2023-07-28T09:53:33;24.30;99.10
770;DHT22;368;48.698;9.116;2023-07-28T09:56:02;24.10;99.50
770;DHT22;368;48.698;9.116;2023-07-28T09:58:34;23.80;99.50
770;DHT22;368;48.698;9.116;2023-07-28T10:01:05;23.80;99.50
770;DHT22;368;48.698;9.116;2023-07-28T10:03:33;23.90;99.90
770;DHT22;368;48.698;9.116;2023-07-28T10:06:00;23.20;99.10
770;DHT22;368;48.698;9.116;2023-07-28T10:08:27;23.60;99.10
770;DHT22;368;48.698;9.116;2023-07-28T10:10:54;23.30;99.00
770;DHT22;368;48.698;9.116;2023-07-28T10:13:22;23.10;98.70
770;DHT22;368;48.698;9.116;2023-07-28T10:15:49;22.70;99.20
770;DHT22;368;48.698;9.116;2023-07-28T10:18:19;22.90;99.50
770;DHT22;368;48.698;9.116;2023-07-28T10:20:46;23.20;98.90
770;DHT22;368;48.698;9.116;2023-07-28T10:23:16;23.00;99.20
770;DHT22;368;48.698;9.116;2023-07-28T10:25:44;23.20;99.80
770;DHT22;368;48.698;9.116;2023-07-28T10:28:27;23.50;99.90
770;DHT22;368;48.698;9.116;2023-07-28T10:30:57;23.70;99.20
770;DHT22;368;48.698;9.116;2023-07-28T10:33:29;23.60;99.30
770;DHT22;368;48.698;9.116;2023-07-28T10:35:56;24.00;98.50
770;DHT22;368;48.698;9.116;2023-07-28T10:38:31;24.40;98.30
770;DHT22;368;48.698;9.116;2023-07-28T10:41:06;24.10;98.10
770;DHT22;368;48.698;9.116;2023-07-28T10:43:33;24.10;97.80
770;DHT22;368;48.698;9.116;2023-07-28T10:46:00;24.50;97.20
770;DHT22;368;48.698;9.116;2023-07-28T10:48:28;25.10;96.60
770;DHT22;368;48.698;9.116;2023-07-28T10:50:55;25.60;96.20
770;DHT22;368;48.698;9.116;2023-07-28T10:53:22;25.60;95.40
770;DHT22;368;48.698;9.116;2023-07-28T10:55:50;25.30;96.20
770;DHT22;368;48.698;9.116;2023-07-28T10:58:16;25.80;95.10
770;DHT22;368;48.698;9.116;2023-07-28T11:00:43;26.20;94.60
770;DHT22;368;48.698;9.116;2023-07-28T11:03:10;25.70;95.30
770;DHT22;368;48.698;9.116;2023-07-28T11:05:40;26.10;95.00
770;DHT22;368;48.698;9.116;2023-07-28T11:08:07;26.30;95.30
770;DHT22;368;48.698;9.116;2023-07-28T11:10:34;26.10;93.70
770;DHT22;368;48.698;9.116;2023-07-28T11:13:02;25.20;95.00
770;DHT22;368;48.698;9.116;2023-07-28T11:15:30;25.30;96.80
770;DHT22;368;48.698;9.116;2023-07-28T11:17:57;25.30;95.10
770;DHT22;368;48.698;9.116;2023-07-28T11:20:25;24.60;96.50
770;DHT22;368;48.698;9.116;2023-07-28T11:22:56;24.10;97.10
770;DHT22;368;48.698;9.116;2023-07-28T11:25:24;24.30;97.30
770;DHT22;368;48.698;9.116;2023-07-28T11:27:52;24.60;97.40
770;DHT22;368;48.698;9.116;2023-07-28T11:30:19;24.60;96.60
770;DHT22;368;48.698;9.116;2023-07-28T11:32:48;24.30;97.30
770;DHT22;368;48.698;9.116;2023-07-28T11:35:17;24.20;97.00
770;DHT22;368;48.698;9.116;2023-07-28T11:37:45;24.10;97.10
770;DHT22;368;48.698;9.116;2023-07-28T11:40:16;23.50;97.30
770;DHT22;368;48.698;9.116;2023-07-28T11:42:44;23.40;97.80
770;DHT22;368;48.698;9.116;2023-07-28T11:45:13;23.10;97.70
770;DHT22;368;48.698;9.116;2023-07-28T11:47:52;22.90;98.10
770;DHT22;368;48.698;9.116;2023-07-28T11:50:24;22.80;98.50
770;DHT22;368;48.698;9.116;2023-07-28T11:52:51;22.70;98.70
770;DHT22;368;48.698;9.116;2023-07-28T11:55:20;22.70;99.90
770;DHT22;368;48.698;9.116;2023-07-28T11:57:48;22.50;99.90
770;DHT22;368;48.698;9.116;2023-07-28T12:00:15;22.20;99.90
770;DHT22;368;48.698;9.116;2023-07-28T12:02:44;21.90;99.90
770;DHT22;368;48.698;9.116;2023-07-28T12:05:14;21.70;99.90
770;DHT22;368;48.698;9.116;2023-07-28T12:07:46;21.70;99.90
770;DHT22;368;48.698;9.116;2023-07-28T12:10:13;21.70;99.90
770;DHT22;368;48.698;9.116;2023-07-28T12:12:44;21.90;99.90
770;DHT22;368;48.698;9.116;2023-07-28T12:15:22;22.20;99.90
770;DHT22;368;48.698;9.116;2023-07-28T12:18:04;22.20;99.90
770;DHT22;368;48.698;9.116;2023-07-28T12:20:33;22.60;99.90
770;DHT22;368;48.698;9.116;2023-07-28T12:23:01;22.80;99.90
770;DHT22;368;48.698;9.116;2023-07-28T12:25:29;22.90;99.90
770;DHT22;368;48.698;9.116;2023-07-28T12:27:58;23.20;99.90
770;DHT22;368;48.698;9.116;2023-07-28T12:30:25;23.40;99.90
770;DHT22;368;48.698;9.116;2023-07-28T12:32:52;23.40;99.90
770;DHT22;368;48.698;9.116;2023-07-28T12:35:19;23.40;99.90
770;DHT22;368;48.698;9.116;2023-07-28T12:37:49;23.70;99.90
770;DHT22;368;48.698;9.116;2023-07-28T12:40:16;23.90;99.90
770;DHT22;368;48.698;9.116;2023-07-28T12:42:42;24.80;99.90
770;DHT22;368;48.698;9.116;2023-07-28T12:45:11;25.30;99.90
770;DHT22;368;48.698;9.116;2023-07-28T12:47:38;24.80;99.90
770;DHT22;368;48.698;9.116;2023-07-28T12:50:06;24.40;99.90
770;DHT22;368;48.698;9.116;2023-07-28T12:52:33;24.30;99.90
770;DHT22;368;48.698;9.116;2023-07-28T12:54:59;24.00;99.90
770;DHT22;368;48.698;9.116;2023-07-28T12:57:26;23.70;99.90
770;DHT22;368;48.698;9.116;2023-07-28T12:59:53;23.40;99.90
770;DHT22;368;48.698;9.116;2023-07-28T13:02:21;23.40;99.90
770;DHT22;368;48.698;9.116;2023-07-28T13:04:48;23.40;99.90
770;DHT22;368;48.698;9.116;2023-07-28T13:07:15;23.60;99.90
770;DHT22;368;48.698;9.116;2023-07-28T13:09:41;23.60;99.90
770;DHT22;368;48.698;9.116;2023-07-28T13:12:08;23.40;99.90
770;DHT22;368;48.698;9.116;2023-07-28T13:14:35;23.20;99.90
770;DHT22;368;48.698;9.116;2023-07-28T13:17:02;23.30;99.90
770;DHT22;368;48.698;9.116;2023-07-28T13:19:30;23.20;99.90
770;DHT22;368;48.698;9.116;2023-07-28T13:21:57;22.90;99.90
770;DHT22;368;48.698;9.116;2023-07-28T13:24:24;22.50;99.90
770;DHT22;368;48.698;9.116;2023-07-28T13:26:50;22.20;99.90
770;DHT22;368;48.698;9.116;2023-07-28T13:29:17;22.00;99.90
770;DHT22;368;48.698;9.116;2023-07-28T13:31:44;21.80;99.90
770;DHT22;368;48.698;9.116;2023-07-28T13:34:11;21.70;99.90
770;DHT22;368;48.698;9.116;2023-07-28T13:36:39;21.40;99.90
770;DHT22;368;48.698;9.116;2023-07-28T13:39:06;21.40;99.90
770;DHT22;368;48.698;9.116;2023-07-28T13:41:32;21.20;99.90
770;DHT22;368;48.698;9.116;2023-07-28T13:43:59;21.10;99.90
770;DHT22;368;48.698;9.116;2023-07-28T13:46:26;21.00;99.90
770;DHT22;368;48.698;9.116;2023-07-28T13:48:53;21.00;99.90
770;DHT22;368;48.698;9.116;2023-07-28T13:51:20;20.90;99.90
770;DHT22;368;48.698;9.116;2023-07-28T13:53:48;20.90;99.90
770;DHT22;368;48.698;9.116;2023-07-28T13:56:15;20.50;99.90
770;DHT22;368;48.698;9.116;2023-07-28T13:58:42;20.30;99.90
770;DHT22;368;48.698;9.116;2023-07-28T14:01:09;20.00;99.90
770;DHT22;368;48.698;9.116;2023-07-28T14:03:35;19.90;99.90
770;DHT22;368;48.698;9.116;2023-07-28T14:06:03;19.70;99.90
770;DHT22;368;48.698;9.116;2023-07-28T14:08:29;19.60;99.90
770;DHT22;368;48.698;9.116;2023-07-28T14:10:57;19.40;99.90
770;DHT22;368;48.698;9.116;2023-07-28T14:13:24;19.50;99.90
770;DHT22;368;48.698;9.116;2023-07-28T14:15:51;19.40;99.90
770;DHT22;368;48.698;9.116;2023-07-28T14:18:18;19.10;99.90
770;DHT22;368;48.698;9.116;2023-07-28T14:20:45;19.10;99.90
770;DHT22;368;48.698;9.116;2023-07-28T14:23:22;19.20;99.90
770;DHT22;368;48.698;9.116;2023-07-28T14:25:49;19.60;99.90
770;DHT22;368;48.698;9.116;2023-07-28T14:28:18;19.90;99.90
770;DHT22;368;48.698;9.116;2023-07-28T14:30:45;20.00;99.90
770;DHT22;368;48.698;9.116;2023-07-28T14:33:12;19.90;99.90
770;DHT22;368;48.698;9.116;2023-07-28T14:35:39;19.90;99.90
770;DHT22;368;48.698;9.116;2023-07-28T14:38:06;20.00;99.90
770;DHT22;368;48.698;9.116;2023-07-28T14:40:33;20.10;99.90
770;DHT22;368;48.698;9.116;2023-07-28T14:43:00;20.20;99.90
770;DHT22;368;48.698;9.116;2023-07-28T14:45:28;20.20;99.90
770;DHT22;368;48.698;9.116;2023-07-28T14:47:55;20.20;99.90
770;DHT22;368;48.698;9.116;2023-07-28T14:50:22;20.10;99.90
770;DHT22;368;48.698;9.116;2023-07-28T14:52:48;20.30;99.90
770;DHT22;368;48.698;9.116;2023-07-28T14:55:15;20.20;99.90
770;DHT22;368;48.698;9.116;2023-07-28T14:57:42;20.40;99.90
770;DHT22;368;48.698;9.116;2023-07-28T15:00:10;20.30;99.90
770;DHT22;368;48.698;9.116;2023-07-28T15:02:39;20.60;99.90
770;DHT22;368;48.698;9.116;2023-07-28T15:05:06;20.80;99.90
770;DHT22;368;48.698;9.116;2023-07-28T15:07:33;21.20;99.90
770;DHT22;368;48.698;9.116;2023-07-28T15:10:01;21.60;99.90
770;DHT22;368;48.698;9.116;2023-07-28T15:12:28;21.70;99.90
770;DHT22;368;48.698;9.116;2023-07-28T15:14:55;21.80;99.90
770;DHT22;368;48.698;9.116;2023-07-28T15:17:22;22.00;99.90
770;DHT22;368;48.698;9.116;2023-07-28T15:19:50;22.00;99.90
770;DHT22;368;48.698;9.116;2023-07-28T15:22:17;22.00;99.90
770;DHT22;368;48.698;9.116;2023-07-28T15:24:43;21.90;99.90
770;DHT22;368;48.698;9.116;2023-07-28T15:27:10;21.80;99.90
770;DHT22;368;48.698;9.116;2023-07-28T15:29:38;21.80;99.90
770;DHT22;368;48.698;9.116;2023-07-28T15:32:05;21.50;99.90
770;DHT22;368;48.698;9.116;2023-07-28T15:34:32;21.30;99.90
770;DHT22;368;48.698;9.116;2023-07-28T15:37:01;21.10;99.90
770;DHT22;368;48.698;9.116;2023-07-28T15:39:29;20.90;99.90
770;DHT22;368;48.698;9.116;2023-07-28T15:41:56;20.90;99.90
770;DHT22;368;48.698;9.116;2023-07-28T15:44:23;20.80;99.90
770;DHT22;368;48.698;9.116;2023-07-28T15:46:51;20.70;99.90
770;DHT22;368;48.698;9.116;2023-07-28T15:49:18;20.70;99.90
770;DHT22;368;48.698;9.116;2023-07-28T15:51:45;20.70;99.90
770;DHT22;368;48.698;9.116;2023-07-28T15:54:13;20.60;99.90
770;DHT22;368;48.698;9.116;2023-07-28T15:56:40;20.60;99.90
770;DHT22;368;48.698;9.116;2023-07-28T15:59:07;20.60;99.90
770;DHT22;368;48.698;9.116;2023-07-28T16:01:34;20.60;99.90
770;DHT22;368;48.698;9.116;2023-07-28T16:04:01;20.70;99.90
770;DHT22;368;48.698;9.116;2023-07-28T16:06:28;20.70;99.90
770;DHT22;368;48.698;9.116;2023-07-28T16:08:55;20.70;99.90
770;DHT22;368;48.698;9.116;2023-07-28T16:11:23;20.70;99.90
770;DHT22;368;48.698;9.116;2023-07-28T16:13:50;20.70;99.90
770;DHT22;368;48.698;9.116;2023-07-28T16:16:16;20.60;99.90
770;DHT22;368;48.698;9.116;2023-07-28T16:18:43;20.60;99.90
770;DHT22;368;48.698;9.116;2023-07-28T16:21:10;20.60;99.90
770;DHT22;368;48.698;9.116;2023-07-28T16:23:37;20.50;99.90
770;DHT22;368;48.698;9.116;2023-07-28T16:26:04;20.50;99.90
770;DHT22;368;48.698;9.116;2023-07-28T16:28:32;20.30;99.90
770;DHT22;368;48.698;9.116;2023-07-28T16:30:59;20.30;99.90
770;DHT22;368;48.698;9.116;2023-07-28T16:33:26;20.20;99.90
770;DHT22;368;48.698;9.116;2023-07-28T16:35:52;20.00;99.90